sensor_id;sensor_type;location;lat;lon;timestamp;P1;durP1;ratioP1;P2;durP2;ratioP2
74523;SDS011;63074;44.696;10.358;2023-02-15T00:01:38;7.22;;;3.13;;
74523;SDS011;63074;44.696;10.358;2023-02-15T00:04:05;8.05;;;3.83;;
74523;SDS011;63074;44.696;10.358;2023-02-15T00:06:33;9.23;;;4.38;;
74523;SDS011;63074;44.696;10.358;2023-02-15T00:09:00;7.63;;;3.78;;
74523;SDS011;63074;44.696;10.358;2023-02-15T00:11:27;8.57;;;3.40;;
74523;SDS011;63074;44.696;10.358;2023-02-15T00:14:09;8.23;;;3.83;;
74523;SDS011;63074;44.696;10.358;2023-02-15T00:16:41;8.77;;;4.25;;
74523;SDS011;63074;44.696;10.358;2023-02-15T00:19:09;8.65;;;3.78;;
74523;SDS011;63074;44.696;10.358;2023-02-15T00:21:36;12.07;;;3.55;;
74523;SDS011;63074;44.696;10.358;2023-02-15T00:24:04;9.50;;;3.83;;
74523;SDS011;63074;44.696;10.358;2023-02-15T00:26:32;9.90;;;4.68;;
74523;SDS011;63074;44.696;10.358;2023-02-15T00:28:59;9.77;;;3.03;;
74523;SDS011;63074;44.696;10.358;2023-02-15T00:31:27;9.65;;;3.80;;
74523;SDS011;63074;44.696;10.358;2023-02-15T00:33:55;8.52;;;4.03;;
74523;SDS011;63074;44.696;10.358;2023-02-15T00:36:29;9.35;;;4.50;;
74523;SDS011;63074;44.696;10.358;2023-02-15T00:38:55;10.52;;;4.03;;
74523;SDS011;63074;44.696;10.358;2023-02-15T00:41:21;11.57;;;5.60;;
74523;SDS011;63074;44.696;10.358;2023-02-15T00:43:48;10.98;;;5.15;;
74523;SDS011;63074;44.696;10.358;2023-02-15T00:46:14;10.10;;;4.90;;
74523;SDS011;63074;44.696;10.358;2023-02-15T00:48:40;10.90;;;4.50;;
74523;SDS011;63074;44.696;10.358;2023-02-15T00:51:06;8.52;;;4.38;;
74523;SDS011;63074;44.696;10.358;2023-02-15T00:53:32;9.60;;;4.22;;
74523;SDS011;63074;44.696;10.358;2023-02-15T00:55:59;10.60;;;4.03;;
74523;SDS011;63074;44.696;10.358;2023-02-15T00:58:25;9.15;;;4.43;;
74523;SDS011;63074;44.696;10.358;2023-02-15T01:00:52;9.73;;;4.35;;
74523;SDS011;63074;44.696;10.358;2023-02-15T01:03:18;7.40;;;3.35;;
74523;SDS011;63074;44.696;10.358;2023-02-15T01:05:46;8.80;;;4.22;;
74523;SDS011;63074;44.696;10.358;2023-02-15T01:08:14;7.57;;;3.67;;
74523;SDS011;63074;44.696;10.358;2023-02-15T01:10:41;9.40;;;3.95;;
74523;SDS011;63074;44.696;10.358;2023-02-15T01:13:09;9.13;;;3.88;;
74523;SDS011;63074;44.696;10.358;2023-02-15T01:15:35;9.55;;;3.92;;
74523;SDS011;63074;44.696;10.358;2023-02-15T01:18:01;10.07;;;3.88;;
74523;SDS011;63074;44.696;10.358;2023-02-15T01:20:28;10.45;;;4.20;;
74523;SDS011;63074;44.696;10.358;2023-02-15T01:22:56;11.45;;;4.20;;
74523;SDS011;63074;44.696;10.358;2023-02-15T01:25:23;9.30;;;4.10;;
74523;SDS011;63074;44.696;10.358;2023-02-15T01:27:49;9.52;;;4.00;;
74523;SDS011;63074;44.696;10.358;2023-02-15T01:30:16;10.63;;;4.22;;
74523;SDS011;63074;44.696;10.358;2023-02-15T01:32:42;11.15;;;5.32;;
74523;SDS011;63074;44.696;10.358;2023-02-15T01:35:09;10.48;;;4.47;;
74523;SDS011;63074;44.696;10.358;2023-02-15T01:37:36;8.48;;;3.50;;
74523;SDS011;63074;44.696;10.358;2023-02-15T01:40:05;8.10;;;3.33;;
74523;SDS011;63074;44.696;10.358;2023-02-15T01:42:33;9.25;;;4.50;;
74523;SDS011;63074;44.696;10.358;2023-02-15T01:45:05;8.07;;;3.63;;
74523;SDS011;63074;44.696;10.358;2023-02-15T01:47:47;7.50;;;3.40;;
74523;SDS011;63074;44.696;10.358;2023-02-15T01:55:47;8.68;;;3.70;;
74523;SDS011;63074;44.696;10.358;2023-02-15T01:58:19;9.63;;;3.60;;
74523;SDS011;63074;44.696;10.358;2023-02-15T02:00:46;8.30;;;3.60;;
74523;SDS011;63074;44.696;10.358;2023-02-15T02:03:13;7.63;;;3.45;;
74523;SDS011;63074;44.696;10.358;2023-02-15T02:05:39;7.93;;;3.28;;
74523;SDS011;63074;44.696;10.358;2023-02-15T02:08:07;9.30;;;3.28;;
74523;SDS011;63074;44.696;10.358;2023-02-15T02:10:36;8.43;;;3.25;;
74523;SDS011;63074;44.696;10.358;2023-02-15T02:13:03;8.32;;;3.78;;
74523;SDS011;63074;44.696;10.358;2023-02-15T02:18:17;6.32;;;3.10;;
74523;SDS011;63074;44.696;10.358;2023-02-15T02:32:52;7.97;;;3.58;;
74523;SDS011;63074;44.696;10.358;2023-02-15T02:43:59;7.50;;;3.00;;
74523;SDS011;63074;44.696;10.358;2023-02-15T02:47:17;6.90;;;2.83;;
74523;SDS011;63074;44.696;10.358;2023-02-15T02:49:34;6.50;;;3.90;;
74523;SDS011;63074;44.696;10.358;2023-02-15T02:52:06;5.55;;;2.22;;
74523;SDS011;63074;44.696;10.358;2023-02-15T02:54:51;6.53;;;2.80;;
74523;SDS011;63074;44.696;10.358;2023-02-15T02:57:19;8.93;;;3.17;;
74523;SDS011;63074;44.696;10.358;2023-02-15T02:59:49;8.40;;;3.47;;
74523;SDS011;63074;44.696;10.358;2023-02-15T03:02:21;8.23;;;3.17;;
74523;SDS011;63074;44.696;10.358;2023-02-15T03:04:55;8.68;;;2.85;;
74523;SDS011;63074;44.696;10.358;2023-02-15T03:07:29;7.28;;;2.67;;
74523;SDS011;63074;44.696;10.358;2023-02-15T03:09:57;7.60;;;3.05;;
74523;SDS011;63074;44.696;10.358;2023-02-15T03:12:28;6.97;;;2.53;;
74523;SDS011;63074;44.696;10.358;2023-02-15T03:15:01;8.95;;;3.55;;
74523;SDS011;63074;44.696;10.358;2023-02-15T03:17:30;6.72;;;2.60;;
74523;SDS011;63074;44.696;10.358;2023-02-15T03:20:00;8.80;;;2.75;;
74523;SDS011;63074;44.696;10.358;2023-02-15T03:22:34;7.03;;;2.65;;
74523;SDS011;63074;44.696;10.358;2023-02-15T03:27:59;5.72;;;2.50;;
74523;SDS011;63074;44.696;10.358;2023-02-15T03:30:30;6.43;;;2.35;;
74523;SDS011;63074;44.696;10.358;2023-02-15T03:33:00;5.68;;;2.00;;
74523;SDS011;63074;44.696;10.358;2023-02-15T03:35:31;6.80;;;3.30;;
74523;SDS011;63074;44.696;10.358;2023-02-15T03:38:09;6.40;;;2.33;;
74523;SDS011;63074;44.696;10.358;2023-02-15T03:40:40;7.50;;;3.53;;
74523;SDS011;63074;44.696;10.358;2023-02-15T03:43:51;8.55;;;2.47;;
74523;SDS011;63074;44.696;10.358;2023-02-15T03:49:00;8.10;;;2.60;;
74523;SDS011;63074;44.696;10.358;2023-02-15T03:51:35;6.20;;;1.90;;
74523;SDS011;63074;44.696;10.358;2023-02-15T03:54:12;4.85;;;2.60;;
74523;SDS011;63074;44.696;10.358;2023-02-15T03:57:04;6.35;;;2.65;;
74523;SDS011;63074;44.696;10.358;2023-02-15T03:59:53;6.80;;;2.53;;
74523;SDS011;63074;44.696;10.358;2023-02-15T04:02:39;7.97;;;2.60;;
74523;SDS011;63074;44.696;10.358;2023-02-15T04:05:10;6.00;;;2.72;;
74523;SDS011;63074;44.696;10.358;2023-02-15T04:07:36;5.88;;;2.55;;
74523;SDS011;63074;44.696;10.358;2023-02-15T04:10:02;4.47;;;2.40;;
74523;SDS011;63074;44.696;10.358;2023-02-15T04:12:47;5.70;;;2.85;;
74523;SDS011;63074;44.696;10.358;2023-02-15T04:15:13;4.95;;;2.17;;
74523;SDS011;63074;44.696;10.358;2023-02-15T04:17:58;5.53;;;2.97;;
74523;SDS011;63074;44.696;10.358;2023-02-15T04:20:27;6.97;;;2.55;;
74523;SDS011;63074;44.696;10.358;2023-02-15T04:23:12;6.03;;;2.38;;
74523;SDS011;63074;44.696;10.358;2023-02-15T04:25:56;6.85;;;2.90;;
74523;SDS011;63074;44.696;10.358;2023-02-15T04:28:22;5.50;;;2.10;;
74523;SDS011;63074;44.696;10.358;2023-02-15T04:30:48;5.68;;;2.63;;
74523;SDS011;63074;44.696;10.358;2023-02-15T04:33:15;5.40;;;2.08;;
74523;SDS011;63074;44.696;10.358;2023-02-15T04:35:42;6.47;;;3.17;;
74523;SDS011;63074;44.696;10.358;2023-02-15T04:38:10;4.78;;;2.67;;
74523;SDS011;63074;44.696;10.358;2023-02-15T04:40:36;5.22;;;1.75;;
74523;SDS011;63074;44.696;10.358;2023-02-15T04:43:02;6.53;;;2.70;;
74523;SDS011;63074;44.696;10.358;2023-02-15T04:45:28;6.18;;;2.30;;
74523;SDS011;63074;44.696;10.358;2023-02-15T04:47:54;4.65;;;2.10;;
74523;SDS011;63074;44.696;10.358;2023-02-15T04:50:20;5.30;;;2.10;;
74523;SDS011;63074;44.696;10.358;2023-02-15T04:52:47;7.63;;;3.58;;
74523;SDS011;63074;44.696;10.358;2023-02-15T04:55:13;9.02;;;3.20;;
74523;SDS011;63074;44.696;10.358;2023-02-15T04:57:39;6.32;;;2.45;;
74523;SDS011;63074;44.696;10.358;2023-02-15T05:00:05;8.15;;;2.92;;
74523;SDS011;63074;44.696;10.358;2023-02-15T05:02:33;7.80;;;2.95;;
74523;SDS011;63074;44.696;10.358;2023-02-15T05:05:00;5.07;;;2.20;;
74523;SDS011;63074;44.696;10.358;2023-02-15T05:07:26;5.63;;;2.70;;
74523;SDS011;63074;44.696;10.358;2023-02-15T05:09:52;5.93;;;2.35;;
74523;SDS011;63074;44.696;10.358;2023-02-15T05:12:18;5.35;;;2.08;;
74523;SDS011;63074;44.696;10.358;2023-02-15T05:14:44;7.00;;;2.83;;
74523;SDS011;63074;44.696;10.358;2023-02-15T05:17:10;4.88;;;2.72;;
74523;SDS011;63074;44.696;10.358;2023-02-15T05:19:36;6.88;;;2.92;;
74523;SDS011;63074;44.696;10.358;2023-02-15T05:22:03;5.35;;;2.40;;
74523;SDS011;63074;44.696;10.358;2023-02-15T05:24:29;6.20;;;2.13;;
74523;SDS011;63074;44.696;10.358;2023-02-15T05:27:14;6.10;;;2.20;;
74523;SDS011;63074;44.696;10.358;2023-02-15T05:29:59;7.22;;;2.58;;
74523;SDS011;63074;44.696;10.358;2023-02-15T05:32:25;5.70;;;2.10;;
74523;SDS011;63074;44.696;10.358;2023-02-15T05:34:51;7.57;;;2.60;;
74523;SDS011;63074;44.696;10.358;2023-02-15T05:37:17;6.38;;;2.58;;
74523;SDS011;63074;44.696;10.358;2023-02-15T05:39:44;5.75;;;2.08;;
74523;SDS011;63074;44.696;10.358;2023-02-15T05:42:11;5.22;;;2.15;;
74523;SDS011;63074;44.696;10.358;2023-02-15T05:44:37;5.63;;;2.08;;
74523;SDS011;63074;44.696;10.358;2023-02-15T05:47:03;5.85;;;2.00;;
74523;SDS011;63074;44.696;10.358;2023-02-15T05:49:32;6.00;;;1.80;;
74523;SDS011;63074;44.696;10.358;2023-02-15T05:51:58;6.47;;;2.10;;
74523;SDS011;63074;44.696;10.358;2023-02-15T05:54:24;5.57;;;2.47;;
74523;SDS011;63074;44.696;10.358;2023-02-15T05:56:52;6.22;;;2.67;;
74523;SDS011;63074;44.696;10.358;2023-02-15T05:59:18;5.05;;;3.05;;
74523;SDS011;63074;44.696;10.358;2023-02-15T06:01:46;6.38;;;2.80;;
74523;SDS011;63074;44.696;10.358;2023-02-15T06:04:12;6.75;;;3.63;;
74523;SDS011;63074;44.696;10.358;2023-02-15T06:06:38;7.50;;;2.28;;
74523;SDS011;63074;44.696;10.358;2023-02-15T06:09:05;7.20;;;2.35;;
74523;SDS011;63074;44.696;10.358;2023-02-15T06:11:31;6.93;;;1.90;;
74523;SDS011;63074;44.696;10.358;2023-02-15T06:13:57;6.45;;;2.38;;
74523;SDS011;63074;44.696;10.358;2023-02-15T06:16:23;8.07;;;3.40;;
74523;SDS011;63074;44.696;10.358;2023-02-15T06:18:49;4.43;;;1.88;;
74523;SDS011;63074;44.696;10.358;2023-02-15T06:21:15;5.03;;;2.35;;
74523;SDS011;63074;44.696;10.358;2023-02-15T06:23:42;4.38;;;2.25;;
74523;SDS011;63074;44.696;10.358;2023-02-15T06:26:08;6.03;;;2.22;;
74523;SDS011;63074;44.696;10.358;2023-02-15T06:28:34;8.10;;;2.65;;
74523;SDS011;63074;44.696;10.358;2023-02-15T06:31:02;6.88;;;2.65;;
74523;SDS011;63074;44.696;10.358;2023-02-15T06:33:28;4.75;;;2.67;;
74523;SDS011;63074;44.696;10.358;2023-02-15T06:35:59;7.40;;;3.45;;
74523;SDS011;63074;44.696;10.358;2023-02-15T06:38:25;5.90;;;2.80;;
74523;SDS011;63074;44.696;10.358;2023-02-15T06:40:51;4.78;;;2.10;;
74523;SDS011;63074;44.696;10.358;2023-02-15T06:43:18;9.48;;;2.55;;
74523;SDS011;63074;44.696;10.358;2023-02-15T06:45:45;7.70;;;2.90;;
74523;SDS011;63074;44.696;10.358;2023-02-15T06:48:11;10.95;;;2.83;;
74523;SDS011;63074;44.696;10.358;2023-02-15T06:50:37;5.78;;;2.50;;
74523;SDS011;63074;44.696;10.358;2023-02-15T06:53:04;5.85;;;2.65;;
74523;SDS011;63074;44.696;10.358;2023-02-15T06:55:30;8.55;;;3.35;;
74523;SDS011;63074;44.696;10.358;2023-02-15T06:57:58;49.38;;;44.35;;
74523;SDS011;63074;44.696;10.358;2023-02-15T07:00:24;9.00;;;2.83;;
74523;SDS011;63074;44.696;10.358;2023-02-15T07:02:54;5.55;;;2.60;;
74523;SDS011;63074;44.696;10.358;2023-02-15T07:05:22;6.75;;;2.67;;
74523;SDS011;63074;44.696;10.358;2023-02-15T07:07:49;7.35;;;2.90;;
74523;SDS011;63074;44.696;10.358;2023-02-15T07:10:16;3.88;;;2.05;;
74523;SDS011;63074;44.696;10.358;2023-02-15T07:12:42;5.28;;;2.20;;
74523;SDS011;63074;44.696;10.358;2023-02-15T07:15:15;5.28;;;2.50;;
74523;SDS011;63074;44.696;10.358;2023-02-15T07:17:43;5.97;;;2.38;;
74523;SDS011;63074;44.696;10.358;2023-02-15T07:20:10;5.15;;;2.25;;
74523;SDS011;63074;44.696;10.358;2023-02-15T07:22:43;4.90;;;2.67;;
74523;SDS011;63074;44.696;10.358;2023-02-15T07:25:10;5.32;;;2.30;;
74523;SDS011;63074;44.696;10.358;2023-02-15T07:27:37;5.85;;;2.63;;
74523;SDS011;63074;44.696;10.358;2023-02-15T07:30:04;4.80;;;2.38;;
74523;SDS011;63074;44.696;10.358;2023-02-15T07:32:32;6.25;;;2.33;;
74523;SDS011;63074;44.696;10.358;2023-02-15T07:35:00;5.47;;;2.20;;
74523;SDS011;63074;44.696;10.358;2023-02-15T07:37:27;7.32;;;2.40;;
74523;SDS011;63074;44.696;10.358;2023-02-15T07:39:53;4.88;;;2.00;;
74523;SDS011;63074;44.696;10.358;2023-02-15T07:42:19;6.13;;;2.60;;
74523;SDS011;63074;44.696;10.358;2023-02-15T07:44:46;5.05;;;2.03;;
74523;SDS011;63074;44.696;10.358;2023-02-15T07:47:13;7.47;;;2.75;;
74523;SDS011;63074;44.696;10.358;2023-02-15T07:49:39;6.28;;;2.33;;
74523;SDS011;63074;44.696;10.358;2023-02-15T07:52:05;6.20;;;2.33;;
74523;SDS011;63074;44.696;10.358;2023-02-15T07:54:31;10.57;;;4.72;;
74523;SDS011;63074;44.696;10.358;2023-02-15T07:56:57;14.05;;;10.18;;
74523;SDS011;63074;44.696;10.358;2023-02-15T07:59:25;10.95;;;4.38;;
74523;SDS011;63074;44.696;10.358;2023-02-15T08:01:52;7.70;;;3.67;;
74523;SDS011;63074;44.696;10.358;2023-02-15T08:04:21;9.15;;;3.85;;
74523;SDS011;63074;44.696;10.358;2023-02-15T08:06:47;10.00;;;3.40;;
74523;SDS011;63074;44.696;10.358;2023-02-15T08:09:16;9.23;;;3.60;;
74523;SDS011;63074;44.696;10.358;2023-02-15T08:11:43;13.88;;;4.40;;
74523;SDS011;63074;44.696;10.358;2023-02-15T08:14:10;8.35;;;4.05;;
74523;SDS011;63074;44.696;10.358;2023-02-15T08:19:28;8.70;;;3.58;;
74523;SDS011;63074;44.696;10.358;2023-02-15T08:21:57;8.75;;;4.13;;
74523;SDS011;63074;44.696;10.358;2023-02-15T08:24:25;7.65;;;4.28;;
74523;SDS011;63074;44.696;10.358;2023-02-15T08:26:54;9.45;;;3.55;;
74523;SDS011;63074;44.696;10.358;2023-02-15T08:29:22;6.53;;;3.90;;
74523;SDS011;63074;44.696;10.358;2023-02-15T08:31:50;7.70;;;4.28;;
74523;SDS011;63074;44.696;10.358;2023-02-15T08:34:28;8.35;;;3.90;;
74523;SDS011;63074;44.696;10.358;2023-02-15T08:36:59;11.52;;;4.45;;
74523;SDS011;63074;44.696;10.358;2023-02-15T08:39:26;11.80;;;4.60;;
74523;SDS011;63074;44.696;10.358;2023-02-15T08:41:52;15.05;;;6.30;;
74523;SDS011;63074;44.696;10.358;2023-02-15T08:44:19;14.55;;;7.07;;
74523;SDS011;63074;44.696;10.358;2023-02-15T08:46:46;16.85;;;6.68;;
74523;SDS011;63074;44.696;10.358;2023-02-15T08:49:17;17.27;;;7.07;;
74523;SDS011;63074;44.696;10.358;2023-02-15T08:51:45;15.20;;;7.57;;
74523;SDS011;63074;44.696;10.358;2023-02-15T08:54:13;16.63;;;7.68;;
74523;SDS011;63074;44.696;10.358;2023-02-15T08:56:42;18.10;;;7.65;;
74523;SDS011;63074;44.696;10.358;2023-02-15T08:59:14;17.63;;;7.90;;
74523;SDS011;63074;44.696;10.358;2023-02-15T09:04:18;12.02;;;5.03;;
74523;SDS011;63074;44.696;10.358;2023-02-15T09:06:46;13.43;;;4.93;;
74523;SDS011;63074;44.696;10.358;2023-02-15T09:09:13;13.27;;;6.38;;
74523;SDS011;63074;44.696;10.358;2023-02-15T09:11:41;12.23;;;6.03;;
74523;SDS011;63074;44.696;10.358;2023-02-15T09:14:10;12.50;;;5.25;;
74523;SDS011;63074;44.696;10.358;2023-02-15T09:16:43;14.63;;;6.47;;
74523;SDS011;63074;44.696;10.358;2023-02-15T09:19:11;12.57;;;6.03;;
74523;SDS011;63074;44.696;10.358;2023-02-15T09:21:38;16.77;;;7.03;;
74523;SDS011;63074;44.696;10.358;2023-02-15T09:24:05;13.75;;;6.35;;
74523;SDS011;63074;44.696;10.358;2023-02-15T09:26:34;14.48;;;6.18;;
74523;SDS011;63074;44.696;10.358;2023-02-15T09:29:02;14.52;;;7.18;;
74523;SDS011;63074;44.696;10.358;2023-02-15T09:31:50;19.55;;;8.15;;
74523;SDS011;63074;44.696;10.358;2023-02-15T09:34:19;22.23;;;9.05;;
74523;SDS011;63074;44.696;10.358;2023-02-15T09:36:47;24.60;;;11.40;;
74523;SDS011;63074;44.696;10.358;2023-02-15T09:39:25;26.15;;;10.68;;
74523;SDS011;63074;44.696;10.358;2023-02-15T09:42:05;30.50;;;13.82;;
74523;SDS011;63074;44.696;10.358;2023-02-15T09:50:29;41.85;;;15.85;;
74523;SDS011;63074;44.696;10.358;2023-02-15T10:12:55;34.25;;;15.85;;
74523;SDS011;63074;44.696;10.358;2023-02-15T10:15:32;40.47;;;16.13;;
74523;SDS011;63074;44.696;10.358;2023-02-15T10:28:49;36.30;;;14.70;;
74523;SDS011;63074;44.696;10.358;2023-02-15T10:34:09;38.80;;;15.25;;
74523;SDS011;63074;44.696;10.358;2023-02-15T10:47:34;36.42;;;14.32;;
74523;SDS011;63074;44.696;10.358;2023-02-15T10:52:54;41.10;;;15.50;;
74523;SDS011;63074;44.696;10.358;2023-02-15T11:00:47;40.05;;;16.27;;
74523;SDS011;63074;44.696;10.358;2023-02-15T11:08:31;36.00;;;15.43;;
74523;SDS011;63074;44.696;10.358;2023-02-15T11:11:05;38.20;;;16.85;;
74523;SDS011;63074;44.696;10.358;2023-02-15T11:13:38;39.67;;;17.02;;
74523;SDS011;63074;44.696;10.358;2023-02-15T11:16:14;36.42;;;16.42;;
74523;SDS011;63074;44.696;10.358;2023-02-15T11:19:05;36.65;;;15.93;;
74523;SDS011;63074;44.696;10.358;2023-02-15T11:21:59;40.35;;;17.30;;
74523;SDS011;63074;44.696;10.358;2023-02-15T11:24:30;38.65;;;17.20;;
74523;SDS011;63074;44.696;10.358;2023-02-15T11:41:21;40.53;;;17.13;;
74523;SDS011;63074;44.696;10.358;2023-02-15T11:43:26;45.25;;;17.75;;
74523;SDS011;63074;44.696;10.358;2023-02-15T11:46:07;40.90;;;16.77;;
74523;SDS011;63074;44.696;10.358;2023-02-15T11:48:36;46.15;;;19.33;;
74523;SDS011;63074;44.696;10.358;2023-02-15T11:51:03;45.67;;;19.88;;
74523;SDS011;63074;44.696;10.358;2023-02-15T11:53:33;44.88;;;19.30;;
74523;SDS011;63074;44.696;10.358;2023-02-15T11:56:03;45.30;;;18.83;;
74523;SDS011;63074;44.696;10.358;2023-02-15T11:58:33;44.55;;;19.73;;
74523;SDS011;63074;44.696;10.358;2023-02-15T12:06:40;43.38;;;18.60;;
74523;SDS011;63074;44.696;10.358;2023-02-15T12:09:24;44.50;;;17.63;;
74523;SDS011;63074;44.696;10.358;2023-02-15T12:14:48;40.22;;;17.15;;
74523;SDS011;63074;44.696;10.358;2023-02-15T12:17:16;43.55;;;18.27;;
74523;SDS011;63074;44.696;10.358;2023-02-15T12:19:45;43.13;;;17.45;;
74523;SDS011;63074;44.696;10.358;2023-02-15T12:24:45;40.38;;;16.75;;
74523;SDS011;63074;44.696;10.358;2023-02-15T12:29:52;38.58;;;17.08;;
74523;SDS011;63074;44.696;10.358;2023-02-15T12:32:35;37.67;;;16.73;;
74523;SDS011;63074;44.696;10.358;2023-02-15T12:35:28;43.13;;;18.45;;
74523;SDS011;63074;44.696;10.358;2023-02-15T12:40:30;40.00;;;15.52;;
74523;SDS011;63074;44.696;10.358;2023-02-15T12:42:58;34.80;;;14.88;;
74523;SDS011;63074;44.696;10.358;2023-02-15T12:45:30;35.40;;;15.70;;
74523;SDS011;63074;44.696;10.358;2023-02-15T12:50:45;37.85;;;16.20;;
74523;SDS011;63074;44.696;10.358;2023-02-15T12:58:22;40.25;;;19.27;;
74523;SDS011;63074;44.696;10.358;2023-02-15T13:06:27;40.35;;;18.35;;
74523;SDS011;63074;44.696;10.358;2023-02-15T13:09:06;75.35;;;31.67;;
74523;SDS011;63074;44.696;10.358;2023-02-15T13:12:09;46.13;;;25.65;;
74523;SDS011;63074;44.696;10.358;2023-02-15T13:14:37;39.13;;;25.25;;
74523;SDS011;63074;44.696;10.358;2023-02-15T13:17:08;39.72;;;17.48;;
74523;SDS011;63074;44.696;10.358;2023-02-15T13:19:39;39.17;;;16.70;;
74523;SDS011;63074;44.696;10.358;2023-02-15T13:22:14;36.03;;;16.85;;
74523;SDS011;63074;44.696;10.358;2023-02-15T13:24:48;40.15;;;17.77;;
74523;SDS011;63074;44.696;10.358;2023-02-15T13:27:25;38.78;;;16.58;;
74523;SDS011;63074;44.696;10.358;2023-02-15T13:30:02;30.88;;;13.90;;
74523;SDS011;63074;44.696;10.358;2023-02-15T13:33:14;34.58;;;15.30;;
74523;SDS011;63074;44.696;10.358;2023-02-15T13:38:39;32.00;;;13.23;;
74523;SDS011;63074;44.696;10.358;2023-02-15T13:41:23;29.25;;;14.13;;
74523;SDS011;63074;44.696;10.358;2023-02-15T13:43:59;29.67;;;14.63;;
74523;SDS011;63074;44.696;10.358;2023-02-15T13:52:24;30.38;;;14.23;;
74523;SDS011;63074;44.696;10.358;2023-02-15T13:55:36;30.45;;;13.77;;
74523;SDS011;63074;44.696;10.358;2023-02-15T14:12:39;34.78;;;15.85;;
74523;SDS011;63074;44.696;10.358;2023-02-15T14:25:42;29.08;;;15.27;;
74523;SDS011;63074;44.696;10.358;2023-02-15T14:28:21;34.10;;;15.75;;
74523;SDS011;63074;44.696;10.358;2023-02-15T14:30:58;32.13;;;15.20;;
74523;SDS011;63074;44.696;10.358;2023-02-15T14:36:03;33.00;;;14.95;;
74523;SDS011;63074;44.696;10.358;2023-02-15T14:41:53;32.58;;;15.52;;
74523;SDS011;63074;44.696;10.358;2023-02-15T14:44:36;30.50;;;16.50;;
74523;SDS011;63074;44.696;10.358;2023-02-15T14:47:34;33.88;;;15.80;;
74523;SDS011;63074;44.696;10.358;2023-02-15T14:56:04;32.00;;;16.52;;
74523;SDS011;63074;44.696;10.358;2023-02-15T14:58:32;33.75;;;15.43;;
74523;SDS011;63074;44.696;10.358;2023-02-15T15:01:32;34.22;;;16.58;;
74523;SDS011;63074;44.696;10.358;2023-02-15T15:03:58;35.50;;;15.48;;
74523;SDS011;63074;44.696;10.358;2023-02-15T15:06:57;33.60;;;15.20;;
74523;SDS011;63074;44.696;10.358;2023-02-15T15:09:25;35.83;;;16.35;;
74523;SDS011;63074;44.696;10.358;2023-02-15T15:14:57;36.63;;;15.75;;
74523;SDS011;63074;44.696;10.358;2023-02-15T15:22:32;38.90;;;17.02;;
74523;SDS011;63074;44.696;10.358;2023-02-15T15:25:01;39.08;;;17.73;;
74523;SDS011;63074;44.696;10.358;2023-02-15T15:35:27;36.30;;;15.75;;
74523;SDS011;63074;44.696;10.358;2023-02-15T15:49:10;38.05;;;17.23;;
74523;SDS011;63074;44.696;10.358;2023-02-15T15:51:43;35.22;;;14.43;;
74523;SDS011;63074;44.696;10.358;2023-02-15T15:54:17;34.78;;;16.50;;
74523;SDS011;63074;44.696;10.358;2023-02-15T15:57:04;37.45;;;16.38;;
74523;SDS011;63074;44.696;10.358;2023-02-15T15:59:37;33.72;;;16.00;;
74523;SDS011;63074;44.696;10.358;2023-02-15T16:02:13;34.40;;;15.40;;
74523;SDS011;63074;44.696;10.358;2023-02-15T16:04:44;37.80;;;15.88;;
74523;SDS011;63074;44.696;10.358;2023-02-15T16:07:13;36.55;;;15.18;;
74523;SDS011;63074;44.696;10.358;2023-02-15T16:09:56;38.97;;;16.25;;
74523;SDS011;63074;44.696;10.358;2023-02-15T16:12:25;34.22;;;15.88;;
74523;SDS011;63074;44.696;10.358;2023-02-15T16:14:58;37.67;;;16.75;;
74523;SDS011;63074;44.696;10.358;2023-02-15T16:17:30;38.55;;;17.30;;
74523;SDS011;63074;44.696;10.358;2023-02-15T16:20:01;37.10;;;16.35;;
74523;SDS011;63074;44.696;10.358;2023-02-15T16:22:31;35.72;;;16.42;;
74523;SDS011;63074;44.696;10.358;2023-02-15T16:27:46;43.45;;;17.25;;
74523;SDS011;63074;44.696;10.358;2023-02-15T16:33:07;37.75;;;16.67;;
74523;SDS011;63074;44.696;10.358;2023-02-15T16:35:39;42.85;;;17.27;;
74523;SDS011;63074;44.696;10.358;2023-02-15T16:41:15;44.55;;;18.38;;
74523;SDS011;63074;44.696;10.358;2023-02-15T16:43:52;45.85;;;18.15;;
74523;SDS011;63074;44.696;10.358;2023-02-15T16:46:28;41.28;;;19.10;;
74523;SDS011;63074;44.696;10.358;2023-02-15T16:49:07;41.60;;;17.05;;
74523;SDS011;63074;44.696;10.358;2023-02-15T16:51:44;49.13;;;19.48;;
74523;SDS011;63074;44.696;10.358;2023-02-15T16:54:27;44.33;;;18.38;;
74523;SDS011;63074;44.696;10.358;2023-02-15T16:56:54;45.88;;;20.02;;
74523;SDS011;63074;44.696;10.358;2023-02-15T16:59:33;50.15;;;20.13;;
74523;SDS011;63074;44.696;10.358;2023-02-15T17:02:17;44.70;;;19.15;;
74523;SDS011;63074;44.696;10.358;2023-02-15T17:05:10;46.53;;;20.95;;
74523;SDS011;63074;44.696;10.358;2023-02-15T17:10:31;49.35;;;20.95;;
74523;SDS011;63074;44.696;10.358;2023-02-15T17:13:09;47.38;;;19.65;;
74523;SDS011;63074;44.696;10.358;2023-02-15T17:15:40;48.63;;;19.55;;
74523;SDS011;63074;44.696;10.358;2023-02-15T17:18:13;43.85;;;19.45;;
74523;SDS011;63074;44.696;10.358;2023-02-15T17:20:42;51.90;;;20.63;;
74523;SDS011;63074;44.696;10.358;2023-02-15T17:28:28;49.28;;;21.20;;
74523;SDS011;63074;44.696;10.358;2023-02-15T17:30:56;46.50;;;19.05;;
74523;SDS011;63074;44.696;10.358;2023-02-15T17:33:35;70.93;;;26.45;;
74523;SDS011;63074;44.696;10.358;2023-02-15T17:41:33;93.28;;;44.72;;
74523;SDS011;63074;44.696;10.358;2023-02-15T17:44:02;65.35;;;31.20;;
74523;SDS011;63074;44.696;10.358;2023-02-15T17:46:29;66.47;;;31.15;;
74523;SDS011;63074;44.696;10.358;2023-02-15T17:49:01;57.13;;;26.88;;
74523;SDS011;63074;44.696;10.358;2023-02-15T17:51:27;50.90;;;23.27;;
74523;SDS011;63074;44.696;10.358;2023-02-15T17:53:56;60.28;;;25.05;;
74523;SDS011;63074;44.696;10.358;2023-02-15T17:56:41;52.95;;;24.30;;
74523;SDS011;63074;44.696;10.358;2023-02-15T17:59:07;57.58;;;25.55;;
74523;SDS011;63074;44.696;10.358;2023-02-15T18:01:37;60.28;;;26.15;;
74523;SDS011;63074;44.696;10.358;2023-02-15T18:04:33;53.17;;;24.00;;
74523;SDS011;63074;44.696;10.358;2023-02-15T18:07:19;55.72;;;24.85;;
74523;SDS011;63074;44.696;10.358;2023-02-15T18:10:12;54.33;;;23.23;;
74523;SDS011;63074;44.696;10.358;2023-02-15T18:13:00;53.80;;;22.92;;
74523;SDS011;63074;44.696;10.358;2023-02-15T18:15:27;52.08;;;23.80;;
74523;SDS011;63074;44.696;10.358;2023-02-15T18:17:54;71.03;;;34.92;;
74523;SDS011;63074;44.696;10.358;2023-02-15T18:20:24;55.92;;;25.63;;
74523;SDS011;63074;44.696;10.358;2023-02-15T18:22:57;55.58;;;21.23;;
74523;SDS011;63074;44.696;10.358;2023-02-15T18:25:26;58.78;;;25.55;;
74523;SDS011;63074;44.696;10.358;2023-02-15T18:27:52;48.95;;;21.65;;
74523;SDS011;63074;44.696;10.358;2023-02-15T18:30:20;43.97;;;20.48;;
74523;SDS011;63074;44.696;10.358;2023-02-15T18:32:48;42.20;;;18.73;;
74523;SDS011;63074;44.696;10.358;2023-02-15T18:35:20;40.22;;;18.67;;
74523;SDS011;63074;44.696;10.358;2023-02-15T18:37:51;34.97;;;16.02;;
74523;SDS011;63074;44.696;10.358;2023-02-15T18:40:18;39.55;;;17.42;;
74523;SDS011;63074;44.696;10.358;2023-02-15T18:42:50;36.22;;;15.20;;
74523;SDS011;63074;44.696;10.358;2023-02-15T18:45:17;37.28;;;15.45;;
74523;SDS011;63074;44.696;10.358;2023-02-15T18:47:46;33.53;;;17.08;;
74523;SDS011;63074;44.696;10.358;2023-02-15T18:50:13;34.65;;;14.75;;